Time;durP1;ratioP1;P1;durP2;ratioP2;P2;SDS_P1;SDS_P2;PMS_P1;PMS_P2;Temp;Humidity;BMP_temperature;BMP_pressure;BME280_temperature;BME280_humidity;BME280_pressure;Samples;Min_cycle;Max_cycle;Signal;HPM_P1;HPM_P2
2021/08/16 00:00:10;;;;;;;15.77;2.75;;;16.50;99.90;;;;;;5098310;28;20082;-64
2021/08/16 00:02:36;;;;;;;10.43;3.00;;;16.40;99.90;;;;;;5098397;28;20442;-64
2021/08/16 00:05:03;;;;;;;11.48;2.55;;;16.30;99.90;;;;;;5098165;28;20028;-64
2021/08/16 00:07:29;;;;;;;9.75;2.28;;;16.30;99.90;;;;;;5098587;28;20031;-64
2021/08/16 00:09:55;;;;;;;6.97;2.20;;;16.40;99.90;;;;;;5098112;28;20020;-64
2021/08/16 00:12:21;;;;;;;8.75;2.33;;;16.30;99.90;;;;;;5098268;28;20201;-64
2021/08/16 00:14:46;;;;;;;7.63;2.95;;;16.30;99.90;;;;;;5098233;28;20058;-64
2021/08/16 00:17:12;;;;;;;9.90;2.63;;;16.40;99.90;;;;;;5097146;28;20017;-64
2021/08/16 00:19:39;;;;;;;7.95;2.55;;;16.50;99.90;;;;;;5097827;28;20031;-64
2021/08/16 00:22:05;;;;;;;8.45;2.60;;;16.50;99.90;;;;;;5098123;28;20028;-64
2021/08/16 00:24:31;;;;;;;9.35;2.80;;;16.60;99.90;;;;;;5097895;28;20016;-64
2021/08/16 00:26:59;;;;;;;11.85;2.67;;;16.60;99.90;;;;;;5098052;28;20055;-64
2021/08/16 00:29:25;;;;;;;13.95;4.00;;;16.60;99.90;;;;;;5097857;28;20542;-64
2021/08/16 00:31:51;;;;;;;7.13;2.85;;;16.60;99.90;;;;;;5097852;28;20441;-64
2021/08/16 00:34:16;;;;;;;9.88;2.30;;;16.60;99.90;;;;;;5097515;28;20035;-64
2021/08/16 00:36:42;;;;;;;15.32;3.25;;;16.60;99.90;;;;;;5097679;28;20048;-64
2021/08/16 00:39:08;;;;;;;9.40;3.28;;;16.60;99.90;;;;;;5097610;28;20106;-64
2021/08/16 00:41:35;;;;;;;19.20;4.68;;;16.70;99.90;;;;;;5097687;28;20023;-64
2021/08/16 00:44:01;;;;;;;9.18;2.97;;;16.70;99.90;;;;;;5097573;28;20070;-64
2021/08/16 00:46:29;;;;;;;11.13;3.22;;;16.70;99.90;;;;;;5097827;28;20426;-64
2021/08/16 00:48:55;;;;;;;15.48;4.22;;;16.70;99.90;;;;;;5097323;28;20016;-64
2021/08/16 00:51:21;;;;;;;11.73;3.55;;;16.70;99.90;;;;;;5097513;28;20073;-64
2021/08/16 00:53:47;;;;;;;15.57;3.53;;;16.70;99.90;;;;;;5097356;28;20026;-64
2021/08/16 00:56:14;;;;;;;13.15;3.20;;;16.70;99.90;;;;;;5097532;28;20020;-64
2021/08/16 00:58:41;;;;;;;9.27;3.05;;;16.70;99.90;;;;;;5097315;28;20403;-64
2021/08/16 01:01:07;;;;;;;14.20;3.63;;;16.70;99.90;;;;;;5097395;28;20024;-64
2021/08/16 01:03:33;;;;;;;15.15;3.58;;;16.70;99.90;;;;;;5097286;28;20400;-64
2021/08/16 01:05:59;;;;;;;11.05;2.83;;;16.80;99.90;;;;;;5097128;28;20033;-64
2021/08/16 01:08:26;;;;;;;11.73;2.75;;;16.70;99.90;;;;;;5097151;28;20024;-64
2021/08/16 01:10:53;;;;;;;13.30;3.85;;;16.70;99.90;;;;;;5097319;28;20023;-64
2021/08/16 01:13:20;;;;;;;12.35;3.20;;;16.70;99.90;;;;;;5097013;28;20069;-64
2021/08/16 01:15:54;;;;;;;10.00;2.85;;;16.80;99.90;;;;;;5097158;28;20031;-64
2021/08/16 01:18:20;;;;;;;8.38;3.08;;;16.80;99.90;;;;;;5097016;28;20105;-64
2021/08/16 01:20:46;;;;;;;14.07;3.58;;;16.80;99.90;;;;;;5096898;28;20035;-64
2021/08/16 01:23:12;;;;;;;13.38;2.78;;;16.70;99.90;;;;;;5096894;28;20032;-64
2021/08/16 01:25:37;;;;;;;12.77;3.65;;;16.70;99.90;;;;;;5097013;28;20024;-64
2021/08/16 01:28:03;;;;;;;18.25;4.10;;;16.70;99.90;;;;;;5096491;28;20024;-64
2021/08/16 01:30:29;;;;;;;9.80;3.65;;;16.80;99.90;;;;;;5097206;28;20380;-64
2021/08/16 01:32:55;;;;;;;10.93;3.42;;;16.70;99.90;;;;;;5096651;28;20031;-64
2021/08/16 01:35:22;;;;;;;10.73;3.42;;;16.70;99.90;;;;;;5096394;28;20048;-64
2021/08/16 01:37:50;;;;;;;15.90;3.90;;;16.80;99.90;;;;;;5096625;28;20091;-64
2021/08/16 01:40:16;;;;;;;12.73;3.30;;;16.70;99.90;;;;;;5096680;28;20560;-64
2021/08/16 01:42:42;;;;;;;10.38;3.10;;;16.80;99.90;;;;;;5096705;28;20103;-64
2021/08/16 01:45:09;;;;;;;16.95;3.65;;;16.70;99.90;;;;;;5096645;28;20035;-64
2021/08/16 01:47:35;;;;;;;12.10;2.95;;;16.70;99.90;;;;;;5096812;28;20059;-64
2021/08/16 01:50:01;;;;;;;7.38;2.60;;;16.70;99.90;;;;;;5096769;28;20032;-64
2021/08/16 01:52:26;;;;;;;15.63;3.22;;;16.70;99.90;;;;;;5096764;28;20025;-64
2021/08/16 01:54:52;;;;;;;8.02;2.75;;;16.70;99.90;;;;;;5096504;28;20031;-64
2021/08/16 01:57:18;;;;;;;6.38;2.50;;;16.70;99.90;;;;;;5096641;28;20024;-64
2021/08/16 01:59:44;;;;;;;8.90;2.10;;;16.60;99.90;;;;;;5096714;28;20492;-64
2021/08/16 02:02:10;;;;;;;12.25;2.67;;;16.70;99.90;;;;;;5096479;28;20055;-64
2021/08/16 02:04:35;;;;;;;12.48;3.50;;;16.70;99.90;;;;;;5096363;28;20038;-64
2021/08/16 02:07:02;;;;;;;7.80;3.20;;;16.70;99.90;;;;;;5096411;28;20082;-64
2021/08/16 02:09:29;;;;;;;11.25;3.85;;;16.70;99.90;;;;;;5096750;28;20016;-64
2021/08/16 02:11:54;;;;;;;12.82;2.53;;;16.70;99.90;;;;;;5096342;28;20095;-64
2021/08/16 02:14:20;;;;;;;10.52;2.88;;;16.70;99.90;;;;;;5096617;28;20048;-64
2021/08/16 02:16:46;;;;;;;9.50;3.15;;;16.80;99.90;;;;;;5096513;28;20080;-64
2021/08/16 02:19:13;;;;;;;9.20;2.42;;;16.70;99.90;;;;;;5096311;28;20024;-64
2021/08/16 02:21:39;;;;;;;11.65;2.55;;;16.70;99.90;;;;;;5096431;28;20032;-64
2021/08/16 02:24:05;;;;;;;8.38;2.90;;;16.70;99.90;;;;;;5096328;28;20073;-64
2021/08/16 02:26:31;;;;;;;9.82;2.40;;;16.80;99.90;;;;;;5096199;28;20368;-64
2021/08/16 02:28:57;;;;;;;12.90;3.35;;;16.70;99.90;;;;;;5096530;28;20024;-64
2021/08/16 02:31:26;;;;;;;7.35;2.53;;;16.80;99.90;;;;;;5096072;28;20048;-64
2021/08/16 02:33:51;;;;;;;5.10;1.90;;;16.80;99.90;;;;;;5096219;28;20494;-64
2021/08/16 02:36:18;;;;;;;6.72;1.90;;;16.70;99.90;;;;;;5096093;28;20094;-64
2021/08/16 02:38:43;;;;;;;7.10;2.20;;;16.60;99.90;;;;;;5096181;28;20032;-64
2021/08/16 02:41:09;;;;;;;8.25;2.53;;;16.60;99.90;;;;;;5098381;28;20141;-64
2021/08/16 02:43:35;;;;;;;9.43;3.67;;;16.50;99.90;;;;;;5100036;28;20024;-64
2021/08/16 02:46:01;;;;;;;12.57;3.50;;;16.50;99.90;;;;;;5099809;28;20039;-64
2021/08/16 02:48:27;;;;;;;6.28;2.67;;;16.40;99.90;;;;;;5100045;28;20020;-64
2021/08/16 02:50:53;;;;;;;5.20;2.20;;;16.40;99.90;;;;;;5099614;28;20043;-64
2021/08/16 02:53:19;;;;;;;9.88;2.63;;;16.40;99.90;;;;;;5099783;28;20510;-64
2021/08/16 02:55:44;;;;;;;11.57;2.97;;;16.40;99.90;;;;;;5099621;28;20028;-64
2021/08/16 02:58:10;;;;;;;15.07;3.17;;;16.50;99.90;;;;;;5099897;28;20028;-64
2021/08/16 03:00:36;;;;;;;6.85;3.67;;;16.50;99.90;;;;;;5099634;28;20023;-64
2021/08/16 03:03:02;;;;;;;7.38;2.08;;;16.50;99.90;;;;;;5099731;28;20071;-64
2021/08/16 03:05:28;;;;;;;6.90;2.28;;;16.60;99.90;;;;;;5099169;28;20047;-64
2021/08/16 03:07:53;;;;;;;7.78;2.30;;;16.60;99.90;;;;;;5099615;28;20024;-64
2021/08/16 03:10:19;;;;;;;9.02;2.40;;;16.70;99.90;;;;;;5099312;28;20016;-64
2021/08/16 03:12:45;;;;;;;7.07;2.13;;;16.70;99.90;;;;;;5099574;28;20433;-64
2021/08/16 03:15:12;;;;;;;6.68;1.98;;;16.60;99.90;;;;;;5099208;28;20016;-64
2021/08/16 03:17:38;;;;;;;9.00;2.35;;;16.70;99.90;;;;;;5099351;28;20024;-64
2021/08/16 03:20:06;;;;;;;6.80;1.83;;;16.60;99.90;;;;;;5099159;28;20484;-64
2021/08/16 03:22:32;;;;;;;5.75;2.33;;;16.60;99.90;;;;;;5099512;28;20085;-64
2021/08/16 03:24:57;;;;;;;9.60;1.75;;;16.70;99.90;;;;;;5099059;28;20024;-64
2021/08/16 03:27:23;;;;;;;5.05;2.00;;;16.50;99.90;;;;;;5099258;28;20020;-64
2021/08/16 03:29:49;;;;;;;7.97;2.17;;;16.50;99.90;;;;;;5098945;28;20016;-64
2021/08/16 03:32:15;;;;;;;3.53;1.50;;;16.50;99.90;;;;;;5098946;28;20024;-64
2021/08/16 03:34:41;;;;;;;7.22;2.05;;;16.40;99.90;;;;;;5098728;28;20013;-64
2021/08/16 03:37:07;;;;;;;4.93;2.25;;;16.50;99.90;;;;;;5098856;28;20472;-64
2021/08/16 03:39:33;;;;;;;5.22;2.40;;;16.50;99.90;;;;;;5098744;28;20027;-64
2021/08/16 03:41:59;;;;;;;5.38;1.70;;;16.50;99.90;;;;;;5099035;28;20031;-64
2021/08/16 03:44:25;;;;;;;5.57;1.83;;;16.40;99.90;;;;;;5098801;28;20108;-64
2021/08/16 03:46:50;;;;;;;4.47;1.83;;;16.40;99.90;;;;;;5098759;28;20058;-64
2021/08/16 03:49:16;;;;;;;4.80;1.80;;;16.50;99.90;;;;;;5098447;28;20024;-64
2021/08/16 03:51:42;;;;;;;4.43;1.50;;;16.40;99.90;;;;;;5098436;28;20054;-64
2021/08/16 03:54:08;;;;;;;5.68;1.70;;;16.50;99.90;;;;;;5098423;28;20480;-64
2021/08/16 03:56:34;;;;;;;4.43;1.60;;;16.50;99.90;;;;;;5098687;28;20065;-64
2021/08/16 03:59:00;;;;;;;4.97;1.60;;;16.50;99.90;;;;;;5098677;28;20032;-64
2021/08/16 04:01:26;;;;;;;6.35;1.42;;;16.50;99.90;;;;;;5098576;28;20499;-64
2021/08/16 04:03:52;;;;;;;2.63;1.40;;;16.50;99.90;;;;;;5098135;28;20024;-64
2021/08/16 04:06:18;;;;;;;3.47;1.70;;;16.60;99.90;;;;;;5098255;28;20055;-64
2021/08/16 04:08:44;;;;;;;3.33;1.33;;;16.60;99.90;;;;;;5098064;28;20065;-64
2021/08/16 04:11:12;;;;;;;4.07;1.83;;;16.60;99.90;;;;;;5098200;28;20476;-64
2021/08/16 04:13:38;;;;;;;5.25;1.55;;;16.60;99.90;;;;;;5098301;28;20024;-64
2021/08/16 04:16:05;;;;;;;6.45;2.20;;;16.60;99.90;;;;;;5098029;28;20028;-64
2021/08/16 04:18:31;;;;;;;4.35;1.63;;;16.60;99.90;;;;;;5098156;28;20031;-64
2021/08/16 04:20:57;;;;;;;3.97;1.38;;;16.60;99.90;;;;;;5098052;28;20066;-64
2021/08/16 04:23:23;;;;;;;1.98;1.65;;;16.60;99.90;;;;;;5098102;28;20023;-64
2021/08/16 04:25:49;;;;;;;2.67;1.23;;;16.70;99.90;;;;;;5097712;28;20046;-64
2021/08/16 04:28:15;;;;;;;4.22;1.52;;;16.70;99.90;;;;;;5097890;28;20020;-64
2021/08/16 04:30:40;;;;;;;5.60;1.80;;;16.70;99.90;;;;;;5098080;28;20103;-64
2021/08/16 04:33:06;;;;;;;3.72;1.48;;;16.70;99.90;;;;;;5097650;28;20084;-64
2021/08/16 04:35:32;;;;;;;4.90;1.85;;;16.70;99.90;;;;;;5097582;28;20101;-64
2021/08/16 04:37:59;;;;;;;2.40;1.67;;;16.60;99.90;;;;;;5097995;28;20020;-64
2021/08/16 04:40:24;;;;;;;5.57;1.83;;;16.70;99.90;;;;;;5097612;28;20488;-64
2021/08/16 04:42:50;;;;;;;4.30;2.05;;;16.70;99.90;;;;;;5097588;28;20050;-64
2021/08/16 04:45:16;;;;;;;3.58;1.95;;;16.70;99.90;;;;;;5097684;28;20028;-64
2021/08/16 04:47:44;;;;;;;3.90;1.50;;;16.70;99.90;;;;;;5097710;28;20073;-64
2021/08/16 04:50:11;;;;;;;6.80;1.25;;;16.80;99.90;;;;;;5097466;28;20031;-64
2021/08/16 04:52:37;;;;;;;4.30;2.00;;;16.80;99.90;;;;;;5097360;28;20453;-64
2021/08/16 04:55:03;;;;;;;3.80;1.48;;;16.60;99.90;;;;;;5097443;28;20028;-64
2021/08/16 04:57:37;;;;;;;4.38;1.80;;;16.60;99.90;;;;;;5097607;28;20074;-64
2021/08/16 05:00:05;;;;;;;3.75;1.80;;;16.50;99.90;;;;;;5097367;28;20054;-64
2021/08/16 05:02:31;;;;;;;3.83;1.45;;;16.40;99.90;;;;;;5097216;28;20027;-64
2021/08/16 05:05:10;;;;;;;7.47;1.90;;;16.30;99.90;;;;;;5096917;28;20020;-64
2021/08/16 05:07:37;;;;;;;6.05;1.90;;;16.20;99.90;;;;;;5097427;28;20380;-64
2021/08/16 05:10:06;;;;;;;3.05;1.75;;;16.20;99.90;;;;;;5097095;28;20020;-64
2021/08/16 05:12:33;;;;;;;3.13;1.50;;;16.10;99.90;;;;;;5097224;28;20016;-64
2021/08/16 05:14:59;;;;;;;4.75;1.52;;;16.00;99.90;;;;;;5097522;28;20027;-64
2021/08/16 05:17:25;;;;;;;5.13;1.80;;;16.00;99.90;;;;;;5097226;28;20396;-64
2021/08/16 05:19:51;;;;;;;3.20;1.98;;;15.90;99.90;;;;;;5096746;28;20051;-64
2021/08/16 05:22:17;;;;;;;1.67;1.30;;;15.90;99.90;;;;;;5097215;28;20077;-64
2021/08/16 05:24:43;;;;;;;4.65;2.08;;;15.80;99.90;;;;;;5096857;28;20021;-64
2021/08/16 05:27:09;;;;;;;3.17;1.55;;;15.90;99.90;;;;;;5097061;28;20024;-64
2021/08/16 05:29:35;;;;;;;3.38;1.13;;;15.80;99.90;;;;;;5096912;28;20028;-64
2021/08/16 05:32:01;;;;;;;4.40;2.15;;;15.80;99.90;;;;;;5096813;28;20094;-64
2021/08/16 05:34:26;;;;;;;5.10;2.10;;;15.80;99.90;;;;;;5097018;28;20031;-64
2021/08/16 05:36:52;;;;;;;1.40;1.30;;;15.80;99.90;;;;;;5096639;28;20052;-65
2021/08/16 05:39:18;;;;;;;3.30;2.00;;;15.80;99.90;;;;;;5096728;28;20024;-64
2021/08/16 05:41:44;;;;;;;3.83;1.65;;;15.80;99.90;;;;;;5096844;28;20024;-64
2021/08/16 05:44:10;;;;;;;2.53;1.65;;;15.80;99.90;;;;;;5096647;28;20028;-64
2021/08/16 05:46:36;;;;;;;4.35;2.13;;;15.80;99.90;;;;;;5096873;28;20403;-64
2021/08/16 05:49:01;;;;;;;2.58;1.52;;;15.90;99.90;;;;;;5096491;28;20024;-64
2021/08/16 05:51:27;;;;;;;2.47;1.65;;;16.00;99.90;;;;;;5097043;28;20353;-64
2021/08/16 05:53:53;;;;;;;3.03;1.73;;;16.00;99.90;;;;;;5096514;28;20016;-64
2021/08/16 05:56:19;;;;;;;6.30;1.90;;;16.10;99.90;;;;;;5096826;28;20059;-64
2021/08/16 05:58:45;;;;;;;6.10;2.10;;;16.20;99.90;;;;;;5096680;28;20077;-64
2021/08/16 06:01:11;;;;;;;2.42;1.58;;;16.30;99.90;;;;;;5096628;28;20551;-64
2021/08/16 06:03:36;;;;;;;8.23;2.08;;;16.40;99.90;;;;;;5096371;28;20027;-64
2021/08/16 06:06:02;;;;;;;8.18;2.00;;;16.50;99.90;;;;;;5096654;28;20020;-64
2021/08/16 06:08:28;;;;;;;3.33;1.83;;;16.80;99.90;;;;;;5096866;28;20398;-64
2021/08/16 06:10:54;;;;;;;2.20;1.35;;;16.90;99.90;;;;;;5096622;28;20024;-64
2021/08/16 06:13:20;;;;;;;4.82;2.38;;;17.10;99.90;;;;;;5096474;28;20563;-64
2021/08/16 06:15:45;;;;;;;4.28;1.63;;;17.30;99.90;;;;;;5100123;28;20028;-64
2021/08/16 06:18:11;;;;;;;10.68;2.05;;;17.50;99.90;;;;;;5100306;28;20032;-64
2021/08/16 06:20:37;;;;;;;2.70;1.63;;;17.70;99.90;;;;;;5100303;28;20101;-64
2021/08/16 06:23:03;;;;;;;7.70;1.60;;;18.00;99.90;;;;;;5100239;28;20240;-64
2021/08/16 06:25:29;;;;;;;5.18;1.77;;;17.90;99.90;;;;;;5100465;28;20051;-64
2021/08/16 06:27:55;;;;;;;6.47;1.77;;;18.10;99.90;;;;;;5100443;28;20369;-64
2021/08/16 06:30:21;;;;;;;7.65;2.47;;;18.40;99.90;;;;;;5100327;28;20024;-64
2021/08/16 06:32:47;;;;;;;3.67;1.80;;;18.40;99.90;;;;;;5099954;28;20079;-64
2021/08/16 06:35:14;;;;;;;2.03;1.63;;;18.60;99.90;;;;;;5099937;28;20116;-64
2021/08/16 06:37:42;;;;;;;2.67;1.70;;;18.60;99.90;;;;;;5100029;28;20430;-64
2021/08/16 06:40:10;;;;;;;3.10;1.85;;;18.60;99.90;;;;;;5100195;28;20083;-65
2021/08/16 06:42:36;;;;;;;2.88;1.45;;;18.80;99.90;;;;;;5099931;28;20495;-64
2021/08/16 06:45:03;;;;;;;4.53;1.42;;;19.00;99.90;;;;;;5100156;28;20070;-64
2021/08/16 06:47:29;;;;;;;3.65;1.60;;;18.90;99.90;;;;;;5100031;28;20027;-64
2021/08/16 06:49:55;;;;;;;4.95;1.60;;;19.10;99.90;;;;;;5099961;28;20376;-64
2021/08/16 06:52:21;;;;;;;3.90;1.70;;;19.10;99.90;;;;;;5099859;28;20044;-64
2021/08/16 06:54:47;;;;;;;5.75;2.40;;;19.10;99.90;;;;;;5099773;28;20028;-64
2021/08/16 06:57:13;;;;;;;3.25;1.33;;;19.10;99.90;;;;;;5099664;28;20086;-64
2021/08/16 06:59:39;;;;;;;4.57;1.88;;;19.30;99.90;;;;;;5099814;28;20043;-64
2021/08/16 07:02:05;;;;;;;4.80;1.90;;;19.50;99.90;;;;;;5099705;28;20035;-64
2021/08/16 07:04:33;;;;;;;3.72;1.13;;;19.80;99.90;;;;;;5099532;28;20026;-64
2021/08/16 07:06:59;;;;;;;3.53;1.95;;;19.80;99.90;;;;;;5099521;28;20024;-64
2021/08/16 07:09:25;;;;;;;4.20;2.20;;;19.80;99.90;;;;;;5099814;28;20024;-64
2021/08/16 07:11:50;;;;;;;3.78;1.63;;;19.80;99.90;;;;;;5099367;28;20023;-64
2021/08/16 07:14:16;;;;;;;9.23;2.40;;;19.80;99.90;;;;;;5099620;28;20412;-64
2021/08/16 07:16:42;;;;;;;2.83;1.30;;;19.90;99.90;;;;;;5099403;28;20424;-64
2021/08/16 07:19:08;;;;;;;6.20;1.63;;;20.10;99.90;;;;;;5099305;28;20395;-64
2021/08/16 07:21:34;;;;;;;3.00;2.00;;;20.10;99.90;;;;;;5099143;28;20079;-64
2021/08/16 07:24:00;;;;;;;9.77;1.83;;;20.30;99.90;;;;;;5099253;28;20024;-64
2021/08/16 07:26:26;;;;;;;2.90;1.45;;;20.40;99.90;;;;;;5098422;28;20476;-64
2021/08/16 07:28:51;;;;;;;3.65;1.77;;;20.40;99.90;;;;;;5099255;28;20046;-64
2021/08/16 07:31:17;;;;;;;6.82;1.70;;;20.10;99.90;;;;;;5098768;28;20027;-64
2021/08/16 07:33:43;;;;;;;3.63;1.60;;;20.10;99.90;;;;;;5098933;28;20012;-65
2021/08/16 07:36:09;;;;;;;4.10;1.27;;;20.00;99.90;;;;;;5098836;28;20511;-61
2021/08/16 07:38:35;;;;;;;4.65;1.60;;;19.80;99.90;;;;;;5093880;28;20028;-62
2021/08/16 07:41:01;;;;;;;4.78;1.75;;;19.80;99.90;;;;;;5099792;28;20024;-61
2021/08/16 07:43:27;;;;;;;4.38;1.52;;;19.90;99.90;;;;;;5105812;28;20098;-62
2021/08/16 07:45:53;;;;;;;3.40;1.90;;;20.10;99.90;;;;;;5100333;28;20028;-62
2021/08/16 07:48:19;;;;;;;2.88;1.50;;;20.40;99.90;;;;;;5098820;28;20016;-62
2021/08/16 07:50:45;;;;;;;4.90;1.85;;;20.40;99.90;;;;;;5098543;28;20030;-62
2021/08/16 07:53:11;;;;;;;4.28;1.45;;;20.30;99.90;;;;;;5097618;28;20020;-62
2021/08/16 07:55:37;;;;;;;2.83;1.52;;;20.20;99.90;;;;;;5099439;28;20037;-62
2021/08/16 07:58:03;;;;;;;2.42;1.55;;;20.10;99.90;;;;;;5098387;28;20020;-62
2021/08/16 08:00:29;;;;;;;3.58;1.70;;;20.10;99.90;;;;;;5098010;28;20024;-62
2021/08/16 08:02:54;;;;;;;8.27;1.83;;;20.20;99.90;;;;;;5098362;28;20108;-62
2021/08/16 08:05:22;;;;;;;2.92;1.30;;;20.50;99.90;;;;;;5097841;28;20035;-62
2021/08/16 08:07:49;;;;;;;5.80;1.75;;;20.50;99.90;;;;;;5096083;28;20104;-61
2021/08/16 08:10:17;;;;;;;2.88;1.50;;;20.40;99.90;;;;;;5097784;28;20043;-62
2021/08/16 08:12:45;;;;;;;5.30;1.90;;;20.60;99.90;;;;;;5098274;28;20023;-62
2021/08/16 08:15:13;;;;;;;3.88;1.60;;;20.60;99.90;;;;;;5097915;28;20480;-62
2021/08/16 08:17:39;;;;;;;4.82;1.50;;;20.60;99.90;;;;;;5098381;28;20020;-63
2021/08/16 08:20:07;;;;;;;2.88;1.30;;;20.80;99.90;;;;;;5087525;28;20020;-62
2021/08/16 08:22:34;;;;;;;3.22;1.40;;;20.90;99.90;;;;;;5098026;28;20027;-62
2021/08/16 08:25:00;;;;;;;4.35;1.30;;;21.40;99.90;;;;;;5097934;28;20028;-62
2021/08/16 08:27:26;;;;;;;4.13;1.27;;;21.70;99.90;;;;;;5097160;28;20020;-62
2021/08/16 08:29:53;;;;;;;3.88;1.40;;;22.20;99.90;;;;;;5097068;28;20103;-65
2021/08/16 08:32:18;;;;;;;4.80;1.55;;;22.90;99.90;;;;;;5097799;28;20020;-65
2021/08/16 08:34:44;;;;;;;3.03;1.15;;;23.20;99.90;;;;;;5097584;28;20020;-64
2021/08/16 08:37:13;;;;;;;3.10;1.33;;;23.40;99.90;;;;;;5097224;28;20090;-65
2021/08/16 08:39:43;;;;;;;3.25;1.35;;;23.50;99.90;;;;;;5097061;28;20110;-64
2021/08/16 08:42:12;;;;;;;2.90;1.08;;;23.90;99.90;;;;;;5097601;28;20499;-65
2021/08/16 08:44:40;;;;;;;8.23;1.23;;;24.10;99.90;;;;;;5097968;28;20055;-65
2021/08/16 08:47:06;;;;;;;5.85;1.67;;;24.20;99.90;;;;;;5097517;28;20035;-65
2021/08/16 08:49:32;;;;;;;4.25;1.27;;;24.90;99.60;;;;;;5097529;28;20024;-65
2021/08/16 08:51:59;;;;;;;4.10;1.33;;;24.80;99.30;;;;;;5097649;28;20016;-65
2021/08/16 08:54:26;;;;;;;3.17;1.48;;;25.10;99.90;;;;;;5097880;28;20070;-65
2021/08/16 08:56:52;;;;;;;2.88;1.17;;;25.50;98.80;;;;;;5097422;28;20495;-64
2021/08/16 08:59:18;;;;;;;4.55;1.10;;;25.70;97.60;;;;;;5096411;28;20028;-64
2021/08/16 09:01:58;;;;;;;2.45;1.13;;;25.60;98.00;;;;;;5097323;28;20020;-65
2021/08/16 09:04:25;;;;;;;1.77;1.02;;;25.80;96.90;;;;;;5097218;28;20023;-65
2021/08/16 09:06:51;;;;;;;5.63;1.60;;;25.60;95.70;;;;;;5097228;28;20020;-64
2021/08/16 09:09:17;;;;;;;3.63;1.20;;;24.90;95.80;;;;;;5097257;28;20079;-64
2021/08/16 09:11:48;;;;;;;4.07;1.30;;;25.00;96.10;;;;;;5097134;28;20023;-64
2021/08/16 09:14:14;;;;;;;3.88;1.23;;;25.40;95.70;;;;;;5097245;28;20032;-65
2021/08/16 09:16:42;;;;;;;3.40;1.00;;;25.90;94.80;;;;;;5097163;28;20027;-65
2021/08/16 09:19:18;;;;;;;4.50;1.13;;;26.30;94.30;;;;;;5096920;28;20032;-65
2021/08/16 09:21:54;;;;;;;3.95;1.15;;;26.00;99.90;;;;;;5097056;28;20086;-59
2021/08/16 09:24:35;;;;;;;5.45;1.15;;;25.50;94.50;;;;;;5096927;28;20031;-59
2021/08/16 09:27:03;;;;;;;3.08;1.00;;;24.60;95.20;;;;;;5096865;28;20025;-60
2021/08/16 09:29:29;;;;;;;2.90;0.80;;;24.40;96.40;;;;;;5096988;28;20020;-59
2021/08/16 09:32:02;;;;;;;2.45;1.13;;;24.80;96.10;;;;;;5096934;28;20027;-60
2021/08/16 09:34:28;;;;;;;3.65;0.82;;;25.20;93.90;;;;;;5096852;28;20027;-60
2021/08/16 09:36:56;;;;;;;2.55;1.10;;;25.60;94.70;;;;;;5096757;28;20052;-61
2021/08/16 09:39:22;;;;;;;2.55;1.05;;;26.50;93.50;;;;;;5096624;28;20422;-60
2021/08/16 09:41:56;;;;;;;3.97;1.35;;;27.00;93.00;;;;;;5096992;28;20074;-60
2021/08/16 09:44:22;;;;;;;2.03;0.82;;;26.80;92.70;;;;;;5096745;28;20031;-60
2021/08/16 09:47:02;;;;;;;2.10;1.00;;;26.50;92.10;;;;;;5096720;28;20024;-59
2021/08/16 09:49:28;;;;;;;3.17;0.85;;;25.90;93.00;;;;;;5099875;28;20162;-60
2021/08/16 09:52:11;;;;;;;1.88;0.70;;;25.90;93.10;;;;;;5103477;28;20503;-60
2021/08/16 09:54:40;;;;;;;3.60;1.27;;;26.50;93.00;;;;;;5103526;28;20024;-59
2021/08/16 09:57:07;;;;;;;3.03;1.10;;;26.20;92.80;;;;;;5103371;28;20016;-60
2021/08/16 09:59:34;;;;;;;4.43;1.45;;;26.00;93.50;;;;;;5103604;28;20032;-59
2021/08/16 10:02:01;;;;;;;10.98;2.17;;;25.80;93.50;;;;;;5103181;28;20419;-60
2021/08/16 10:04:32;;;;;;;2.75;1.10;;;25.40;93.40;;;;;;5103522;28;20031;-60
2021/08/16 10:06:58;;;;;;;3.28;1.42;;;25.80;94.50;;;;;;5103405;28;20514;-60
2021/08/16 10:09:26;;;;;;;3.95;1.40;;;26.70;93.10;;;;;;5103508;28;20028;-60
2021/08/16 10:11:53;;;;;;;9.38;1.38;;;26.50;92.60;;;;;;5103230;28;20039;-60
2021/08/16 10:14:25;;;;;;;5.65;1.30;;;26.60;92.60;;;;;;5103316;28;20190;-59
2021/08/16 10:16:54;;;;;;;3.78;1.95;;;24.50;93.30;;;;;;5103095;28;20031;-60
2021/08/16 10:19:52;;;;;;;5.72;1.35;;;24.00;93.90;;;;;;5102885;28;20115;-60
2021/08/16 10:22:18;;;;;;;4.13;1.25;;;;;;;;;;5094013;28;20570;-61
2021/08/16 10:24:44;;;;;;;5.78;2.03;;;23.50;94.10;;;;;;5103017;28;20028;-60
2021/08/16 10:27:11;;;;;;;2.97;1.45;;;23.20;94.60;;;;;;5103175;28;20024;-60
2021/08/16 10:29:40;;;;;;;3.72;1.58;;;22.90;95.30;;;;;;5103141;28;20016;-59
2021/08/16 10:32:20;;;;;;;3.17;1.30;;;22.70;97.20;;;;;;5103098;28;20024;-59
2021/08/16 10:34:46;;;;;;;2.72;1.23;;;22.40;95.70;;;;;;5102893;28;20028;-59
2021/08/16 10:37:15;;;;;;;4.75;1.38;;;22.20;96.40;;;;;;5103210;28;20037;-60
2021/08/16 10:39:43;;;;;;;3.30;1.55;;;22.30;97.00;;;;;;5102902;28;20026;-59
2021/08/16 10:42:12;;;;;;;4.18;1.27;;;22.40;96.20;;;;;;5103142;28;20047;-60
2021/08/16 10:44:43;;;;;;;3.53;1.48;;;22.60;95.50;;;;;;5103192;28;20357;-60
2021/08/16 10:47:11;;;;;;;3.80;1.42;;;22.70;96.70;;;;;;5102769;28;20024;-60
2021/08/16 10:49:39;;;;;;;2.95;1.40;;;23.20;97.30;;;;;;5102916;28;20028;-60
2021/08/16 10:52:19;;;;;;;2.10;1.00;;;24.00;94.90;;;;;;5102862;28;20480;-60
2021/08/16 10:54:45;;;;;;;2.63;1.40;;;24.50;95.30;;;;;;5103050;28;20117;-60
2021/08/16 10:57:11;;;;;;;3.90;1.20;;;24.80;95.20;;;;;;5102983;28;20028;-60
2021/08/16 10:59:37;;;;;;;3.05;1.40;;;25.20;94.80;;;;;;5102877;28;20504;-59
2021/08/16 11:02:03;;;;;;;3.22;1.40;;;25.10;93.20;;;;;;5098928;28;20016;-59
2021/08/16 11:04:34;;;;;;;5.78;1.50;;;25.20;93.60;;;;;;5099445;28;20024;-60
2021/08/16 11:07:03;;;;;;;3.22;1.15;;;25.90;93.30;;;;;;5099644;28;20028;-59
2021/08/16 11:09:31;;;;;;;2.13;1.15;;;26.40;92.80;;;;;;5099562;28;20499;-60
2021/08/16 11:12:04;;;;;;;2.63;1.23;;;26.30;92.40;;;;;;5099509;28;20027;-59
2021/08/16 11:14:32;;;;;;;3.22;1.35;;;26.30;92.20;;;;;;5099586;28;20016;-59
2021/08/16 11:16:58;;;;;;;3.72;1.48;;;26.30;92.20;;;;;;5099753;28;20028;-59
2021/08/16 11:19:26;;;;;;;2.20;1.25;;;26.60;92.00;;;;;;5099388;28;20024;-59
2021/08/16 11:21:58;;;;;;;4.72;1.40;;;26.10;91.30;;;;;;5099637;28;20031;-59
2021/08/16 11:24:34;;;;;;;4.80;1.23;;;25.20;91.60;;;;;;5099318;28;20028;-59
2021/08/16 11:27:01;;;;;;;3.22;1.70;;;24.30;92.60;;;;;;5099316;28;20066;-59
2021/08/16 11:29:28;;;;;;;2.70;1.23;;;23.80;93.20;;;;;;5099316;28;20035;-65
2021/08/16 11:32:01;;;;;;;7.43;2.15;;;23.70;94.30;;;;;;5099253;28;20008;-65
2021/08/16 11:34:29;;;;;;;2.85;1.50;;;24.20;94.70;;;;;;5097780;28;20025;-66
2021/08/16 11:36:56;;;;;;;3.78;1.50;;;27.10;92.30;;;;;;5099013;28;20044;-65
2021/08/16 11:39:34;;;;;;;3.45;1.38;;;27.30;92.10;;;;;;5098905;28;20047;-66
2021/08/16 11:42:02;;;;;;;7.95;2.10;;;28.80;90.00;;;;;;5099009;28;20032;-71
2021/08/16 11:44:29;;;;;;;5.18;1.48;;;29.70;89.60;;;;;;5098921;28;20028;-65
2021/08/16 11:47:02;;;;;;;4.93;2.28;;;29.70;85.60;;;;;;5099063;28;20035;-65
2021/08/16 11:49:33;;;;;;;4.07;1.80;;;30.40;86.00;;;;;;5098854;28;20031;-65
2021/08/16 11:51:59;;;;;;;4.90;1.85;;;31.40;81.70;;;;;;5098869;28;20024;-65
2021/08/16 11:54:36;;;;;;;4.03;1.80;;;31.50;82.80;;;;;;5099108;28;20097;-65
2021/08/16 11:57:07;;;;;;;5.97;2.70;;;30.40;80.90;;;;;;5098801;28;20039;-65
2021/08/16 11:59:33;;;;;;;4.38;1.95;;;26.40;83.50;;;;;;5098479;28;20494;-65
2021/08/16 12:02:05;;;;;;;7.35;2.20;;;25.90;85.30;;;;;;5098489;28;20110;-66
2021/08/16 12:04:40;;;;;;;6.13;1.90;;;25.00;88.80;;;;;;5098506;28;20022;-65
2021/08/16 12:07:06;;;;;;;2.28;1.50;;;24.00;90.90;;;;;;5098330;28;20032;-65
2021/08/16 12:09:37;;;;;;;3.90;1.75;;;23.50;92.10;;;;;;5098405;28;20468;-65
2021/08/16 12:12:05;;;;;;;3.55;1.60;;;23.20;99.90;;;;;;5098126;28;20019;-65
2021/08/16 12:14:34;;;;;;;4.25;1.70;;;23.10;94.50;;;;;;5098349;28;20019;-65
2021/08/16 12:17:00;;;;;;;4.65;1.60;;;23.20;94.70;;;;;;5098490;28;20066;-65
2021/08/16 12:19:26;;;;;;;4.55;1.92;;;23.20;94.90;;;;;;5098136;28;20057;-65
2021/08/16 12:22:10;;;;;;;6.07;1.80;;;23.40;94.80;;;;;;5098288;28;20396;-65
2021/08/16 12:24:38;;;;;;;4.13;1.50;;;23.70;94.80;;;;;;5097931;28;20032;-65
2021/08/16 12:27:10;;;;;;;4.13;1.52;;;23.80;94.40;;;;;;5098122;28;20035;-65
2021/08/16 12:29:44;;;;;;;4.18;1.67;;;23.70;94.40;;;;;;5098005;28;20020;-65
2021/08/16 12:32:18;;;;;;;8.73;1.73;;;23.80;94.40;;;;;;5097923;28;20024;-65
2021/08/16 12:34:45;;;;;;;3.95;1.92;;;23.90;92.50;;;;;;5097640;28;20020;-65
2021/08/16 12:37:29;;;;;;;10.20;2.10;;;24.10;93.20;;;;;;5097729;28;20400;-65
2021/08/16 12:40:17;;;;;;;7.93;1.70;;;24.70;93.80;;;;;;5098044;28;20028;-65
2021/08/16 12:42:54;;;;;;;6.30;2.00;;;26.60;92.10;;;;;;5097624;28;20568;-65
2021/08/16 12:45:20;;;;;;;4.20;1.58;;;27.10;90.70;;;;;;5097798;28;20026;-65